sensor_id;sensor_type;location;lat;lon;timestamp;P1;durP1;ratioP1;P2;durP2;ratioP2
75922;SDS011;64602;47.542;19.090;2023-04-25T05:48:19;4.67;;;3.23;;
75922;SDS011;64602;47.542;19.090;2023-04-25T05:53:21;4.22;;;2.78;;
75922;SDS011;64602;47.542;19.090;2023-04-25T05:58:23;5.15;;;2.90;;
75922;SDS011;64602;47.542;19.090;2023-04-25T06:03:25;4.40;;;2.80;;
75922;SDS011;64602;47.542;19.090;2023-04-25T06:08:28;6.37;;;3.43;;
75922;SDS011;64602;47.542;19.090;2023-04-25T06:13:31;6.25;;;3.67;;
75922;SDS011;64602;47.542;19.090;2023-04-25T06:18:33;4.82;;;3.40;;
75922;SDS011;64602;47.542;19.090;2023-04-25T06:23:35;5.63;;;3.93;;
75922;SDS011;64602;47.542;19.090;2023-04-25T06:28:37;7.40;;;4.03;;
75922;SDS011;64602;47.542;19.090;2023-04-25T06:33:39;5.80;;;4.00;;
75922;SDS011;64602;47.542;19.090;2023-04-25T06:38:41;7.73;;;4.77;;
75922;SDS011;64602;47.542;19.090;2023-04-25T06:43:44;8.00;;;4.50;;
75922;SDS011;64602;47.542;19.090;2023-04-25T06:48:46;6.87;;;4.53;;
75922;SDS011;64602;47.542;19.090;2023-04-25T06:53:48;6.93;;;4.53;;
75922;SDS011;64602;47.542;19.090;2023-04-25T06:58:50;6.20;;;4.40;;
75922;SDS011;64602;47.542;19.090;2023-04-25T07:03:53;5.68;;;4.00;;
75922;SDS011;64602;47.542;19.090;2023-04-25T07:08:55;7.32;;;4.32;;
75922;SDS011;64602;47.542;19.090;2023-04-25T07:13:57;8.07;;;4.97;;
75922;SDS011;64602;47.542;19.090;2023-04-25T07:18:59;6.60;;;3.92;;
75922;SDS011;64602;47.542;19.090;2023-04-25T07:24:02;6.40;;;4.20;;
75922;SDS011;64602;47.542;19.090;2023-04-25T07:29:04;5.30;;;3.67;;
75922;SDS011;64602;47.542;19.090;2023-04-25T07:34:07;6.40;;;4.30;;
75922;SDS011;64602;47.542;19.090;2023-04-25T07:39:09;6.57;;;4.30;;
75922;SDS011;64602;47.542;19.090;2023-04-25T07:44:12;6.83;;;4.10;;
75922;SDS011;64602;47.542;19.090;2023-04-25T07:49:14;5.37;;;3.60;;
75922;SDS011;64602;47.542;19.090;2023-04-25T07:54:17;5.85;;;3.83;;
75922;SDS011;64602;47.542;19.090;2023-04-25T07:59:19;4.82;;;3.30;;
75922;SDS011;64602;47.542;19.090;2023-04-25T08:04:21;3.83;;;2.93;;
75922;SDS011;64602;47.542;19.090;2023-04-25T08:09:24;4.25;;;2.97;;
75922;SDS011;64602;47.542;19.090;2023-04-25T08:14:26;4.40;;;3.15;;
75922;SDS011;64602;47.542;19.090;2023-04-25T08:19:29;4.30;;;2.70;;
75922;SDS011;64602;47.542;19.090;2023-04-25T08:24:32;4.45;;;2.87;;
75922;SDS011;64602;47.542;19.090;2023-04-25T08:29:34;4.50;;;2.92;;
75922;SDS011;64602;47.542;19.090;2023-04-25T08:34:37;3.27;;;2.20;;
75922;SDS011;64602;47.542;19.090;2023-04-25T08:39:41;6.90;;;2.67;;
75922;SDS011;64602;47.542;19.090;2023-04-25T08:44:45;3.05;;;1.90;;
75922;SDS011;64602;47.542;19.090;2023-04-25T08:49:47;4.28;;;2.30;;
75922;SDS011;64602;47.542;19.090;2023-04-25T08:54:51;3.63;;;2.07;;
75922;SDS011;64602;47.542;19.090;2023-04-25T08:59:56;3.80;;;2.37;;
75922;SDS011;64602;47.542;19.090;2023-04-25T09:04:59;4.10;;;2.40;;
75922;SDS011;64602;47.542;19.090;2023-04-25T09:10:02;3.73;;;2.43;;
75922;SDS011;64602;47.542;19.090;2023-04-25T09:20:09;4.68;;;2.42;;
75922;SDS011;64602;47.542;19.090;2023-04-25T09:25:14;3.90;;;2.40;;
75922;SDS011;64602;47.542;19.090;2023-04-25T09:30:16;3.73;;;2.27;;
75922;SDS011;64602;47.542;19.090;2023-04-25T09:35:25;3.20;;;1.90;;
75922;SDS011;64602;47.542;19.090;2023-04-25T09:40:28;2.58;;;1.75;;
75922;SDS011;64602;47.542;19.090;2023-04-25T09:45:32;2.40;;;1.50;;
75922;SDS011;64602;47.542;19.090;2023-04-25T09:50:43;4.10;;;1.80;;
75922;SDS011;64602;47.542;19.090;2023-04-25T09:55:45;4.95;;;1.48;;
75922;SDS011;64602;47.542;19.090;2023-04-25T10:00:47;1.97;;;1.10;;
75922;SDS011;64602;47.542;19.090;2023-04-25T10:05:50;1.83;;;0.95;;
75922;SDS011;64602;47.542;19.090;2023-04-25T10:10:54;2.50;;;1.02;;
75922;SDS011;64602;47.542;19.090;2023-04-25T10:15:57;2.50;;;1.10;;
75922;SDS011;64602;47.542;19.090;2023-04-25T10:21:01;2.73;;;1.00;;
75922;SDS011;64602;47.542;19.090;2023-04-25T10:26:06;2.25;;;0.85;;
75922;SDS011;64602;47.542;19.090;2023-04-25T10:31:14;2.65;;;0.93;;
75922;SDS011;64602;47.542;19.090;2023-04-25T10:36:18;1.53;;;0.60;;
75922;SDS011;64602;47.542;19.090;2023-04-25T10:41:25;1.48;;;0.50;;
75922;SDS011;64602;47.542;19.090;2023-04-25T10:46:28;2.17;;;0.70;;
75922;SDS011;64602;47.542;19.090;2023-04-25T10:51:34;0.90;;;0.30;;
75922;SDS011;64602;47.542;19.090;2023-04-25T10:56:55;1.35;;;0.40;;
75922;SDS011;64602;47.542;19.090;2023-04-25T11:02:00;1.00;;;0.40;;
75922;SDS011;64602;47.542;19.090;2023-04-25T11:13:08;1.10;;;0.30;;
75922;SDS011;64602;47.542;19.090;2023-04-25T11:18:10;1.12;;;0.40;;
75922;SDS011;64602;47.542;19.090;2023-04-25T11:23:12;2.70;;;0.50;;
75922;SDS011;64602;47.542;19.090;2023-04-25T11:28:20;1.03;;;0.30;;
75922;SDS011;64602;47.542;19.090;2023-04-25T11:33:25;1.23;;;0.32;;
75922;SDS011;64602;47.542;19.090;2023-04-25T11:38:29;3.08;;;0.40;;
75922;SDS011;64602;47.542;19.090;2023-04-25T11:43:31;2.17;;;0.30;;
75922;SDS011;64602;47.542;19.090;2023-04-25T11:48:40;1.40;;;0.43;;
75922;SDS011;64602;47.542;19.090;2023-04-25T11:53:44;1.58;;;0.50;;
75922;SDS011;64602;47.542;19.090;2023-04-25T11:58:59;0.93;;;0.30;;
75922;SDS011;64602;47.542;19.090;2023-04-25T12:04:13;1.07;;;0.30;;
75922;SDS011;64602;47.542;19.090;2023-04-25T12:09:18;0.73;;;0.30;;
75922;SDS011;64602;47.542;19.090;2023-04-25T12:14:31;1.02;;;0.30;;
75922;SDS011;64602;47.542;19.090;2023-04-25T12:19:35;1.00;;;0.40;;
75922;SDS011;64602;47.542;19.090;2023-04-25T12:24:39;1.02;;;0.50;;
75922;SDS011;64602;47.542;19.090;2023-04-25T12:29:49;1.35;;;0.50;;
75922;SDS011;64602;47.542;19.090;2023-04-25T12:34:52;0.83;;;0.30;;
75922;SDS011;64602;47.542;19.090;2023-04-25T12:39:55;1.33;;;0.50;;
75922;SDS011;64602;47.542;19.090;2023-04-25T12:44:57;1.40;;;0.50;;
75922;SDS011;64602;47.542;19.090;2023-04-25T12:49:59;1.23;;;0.30;;
75922;SDS011;64602;47.542;19.090;2023-04-25T12:55:01;0.97;;;0.30;;
75922;SDS011;64602;47.542;19.090;2023-04-25T13:00:04;2.80;;;0.50;;
75922;SDS011;64602;47.542;19.090;2023-04-25T13:05:09;2.58;;;0.50;;
75922;SDS011;64602;47.542;19.090;2023-04-25T13:10:11;2.27;;;0.47;;
75922;SDS011;64602;47.542;19.090;2023-04-25T13:15:14;2.00;;;0.40;;
75922;SDS011;64602;47.542;19.090;2023-04-25T13:20:17;0.95;;;0.40;;
75922;SDS011;64602;47.542;19.090;2023-04-25T13:25:20;1.57;;;0.67;;
75922;SDS011;64602;47.542;19.090;2023-04-25T13:30:23;1.65;;;0.60;;
75922;SDS011;64602;47.542;19.090;2023-04-25T13:35:25;1.35;;;0.40;;
75922;SDS011;64602;47.542;19.090;2023-04-25T13:40:27;2.80;;;0.80;;
75922;SDS011;64602;47.542;19.090;2023-04-25T13:45:30;1.33;;;0.60;;
75922;SDS011;64602;47.542;19.090;2023-04-25T13:50:34;1.17;;;0.50;;
75922;SDS011;64602;47.542;19.090;2023-04-25T13:55:36;2.03;;;0.73;;
75922;SDS011;64602;47.542;19.090;2023-04-25T14:00:39;3.30;;;0.60;;
75922;SDS011;64602;47.542;19.090;2023-04-25T14:05:42;2.22;;;0.60;;
75922;SDS011;64602;47.542;19.090;2023-04-25T14:10:44;2.83;;;0.77;;
75922;SDS011;64602;47.542;19.090;2023-04-25T14:15:46;2.10;;;0.67;;
75922;SDS011;64602;47.542;19.090;2023-04-25T14:20:48;2.03;;;0.60;;
75922;SDS011;64602;47.542;19.090;2023-04-25T14:25:50;1.45;;;0.70;;
75922;SDS011;64602;47.542;19.090;2023-04-25T14:30:52;2.13;;;0.67;;
75922;SDS011;64602;47.542;19.090;2023-04-25T14:35:55;2.70;;;0.70;;
75922;SDS011;64602;47.542;19.090;2023-04-25T14:40:57;1.62;;;0.70;;
75922;SDS011;64602;47.542;19.090;2023-04-25T14:45:59;1.23;;;0.60;;
75922;SDS011;64602;47.542;19.090;2023-04-25T14:51:03;2.43;;;0.53;;
75922;SDS011;64602;47.542;19.090;2023-04-25T14:56:06;1.90;;;0.68;;
75922;SDS011;64602;47.542;19.090;2023-04-25T15:01:09;2.03;;;0.70;;
75922;SDS011;64602;47.542;19.090;2023-04-25T15:06:11;2.60;;;0.80;;
75922;SDS011;64602;47.542;19.090;2023-04-25T15:11:13;1.45;;;0.82;;
75922;SDS011;64602;47.542;19.090;2023-04-25T15:16:15;1.80;;;0.80;;
75922;SDS011;64602;47.542;19.090;2023-04-25T15:21:17;3.33;;;1.23;;
75922;SDS011;64602;47.542;19.090;2023-04-25T15:26:20;1.97;;;0.77;;
75922;SDS011;64602;47.542;19.090;2023-04-25T15:31:22;1.83;;;0.80;;
75922;SDS011;64602;47.542;19.090;2023-04-25T15:36:25;2.75;;;1.20;;
75922;SDS011;64602;47.542;19.090;2023-04-25T15:41:27;1.50;;;0.80;;
75922;SDS011;64602;47.542;19.090;2023-04-25T15:46:30;2.10;;;0.80;;
75922;SDS011;64602;47.542;19.090;2023-04-25T15:51:33;1.60;;;0.70;;
75922;SDS011;64602;47.542;19.090;2023-04-25T15:56:36;2.57;;;1.37;;
75922;SDS011;64602;47.542;19.090;2023-04-25T16:01:38;2.55;;;1.50;;
75922;SDS011;64602;47.542;19.090;2023-04-25T16:06:41;4.65;;;1.75;;
75922;SDS011;64602;47.542;19.090;2023-04-25T16:11:43;5.30;;;2.07;;
75922;SDS011;64602;47.542;19.090;2023-04-25T16:16:45;2.60;;;1.60;;
75922;SDS011;64602;47.542;19.090;2023-04-25T16:21:47;3.08;;;1.73;;
75922;SDS011;64602;47.542;19.090;2023-04-25T16:26:49;3.00;;;2.00;;
75922;SDS011;64602;47.542;19.090;2023-04-25T16:31:51;4.87;;;1.90;;
75922;SDS011;64602;47.542;19.090;2023-04-25T16:36:54;3.92;;;1.83;;
75922;SDS011;64602;47.542;19.090;2023-04-25T16:41:57;3.87;;;2.10;;
75922;SDS011;64602;47.542;19.090;2023-04-25T16:46:59;4.30;;;2.27;;
75922;SDS011;64602;47.542;19.090;2023-04-25T16:52:02;3.90;;;2.10;;
75922;SDS011;64602;47.542;19.090;2023-04-25T16:57:04;4.87;;;2.42;;
75922;SDS011;64602;47.542;19.090;2023-04-25T17:02:09;4.53;;;2.30;;
75922;SDS011;64602;47.542;19.090;2023-04-25T17:07:13;3.73;;;2.70;;
75922;SDS011;64602;47.542;19.090;2023-04-25T17:12:16;4.75;;;2.60;;
75922;SDS011;64602;47.542;19.090;2023-04-25T17:17:20;7.75;;;3.15;;
75922;SDS011;64602;47.542;19.090;2023-04-25T17:22:22;3.20;;;2.10;;
75922;SDS011;64602;47.542;19.090;2023-04-25T17:27:25;3.72;;;2.45;;
75922;SDS011;64602;47.542;19.090;2023-04-25T17:32:27;3.97;;;2.40;;
75922;SDS011;64602;47.542;19.090;2023-04-25T17:37:29;3.03;;;2.00;;
75922;SDS011;64602;47.542;19.090;2023-04-25T17:42:32;3.50;;;1.83;;
75922;SDS011;64602;47.542;19.090;2023-04-25T17:47:34;4.60;;;2.03;;
75922;SDS011;64602;47.542;19.090;2023-04-25T17:52:37;3.23;;;2.00;;
75922;SDS011;64602;47.542;19.090;2023-04-25T17:57:39;4.60;;;2.00;;
75922;SDS011;64602;47.542;19.090;2023-04-25T18:02:41;3.33;;;2.00;;
75922;SDS011;64602;47.542;19.090;2023-04-25T18:07:46;5.85;;;3.40;;
75922;SDS011;64602;47.542;19.090;2023-04-25T18:12:48;4.47;;;1.97;;
75922;SDS011;64602;47.542;19.090;2023-04-25T18:17:51;4.75;;;2.80;;
75922;SDS011;64602;47.542;19.090;2023-04-25T18:22:53;4.85;;;2.92;;
75922;SDS011;64602;47.542;19.090;2023-04-25T18:27:55;5.47;;;3.20;;
75922;SDS011;64602;47.542;19.090;2023-04-25T18:32:59;4.47;;;2.80;;
75922;SDS011;64602;47.542;19.090;2023-04-25T18:38:01;5.18;;;2.90;;
75922;SDS011;64602;47.542;19.090;2023-04-25T18:43:04;5.33;;;2.70;;
75922;SDS011;64602;47.542;19.090;2023-04-25T18:48:06;4.83;;;3.23;;
75922;SDS011;64602;47.542;19.090;2023-04-25T18:53:09;5.30;;;2.70;;
75922;SDS011;64602;47.542;19.090;2023-04-25T18:58:12;5.15;;;2.62;;
75922;SDS011;64602;47.542;19.090;2023-04-25T19:03:14;3.93;;;2.40;;
75922;SDS011;64602;47.542;19.090;2023-04-25T19:08:16;3.75;;;2.35;;
75922;SDS011;64602;47.542;19.090;2023-04-25T19:13:19;3.87;;;2.45;;
75922;SDS011;64602;47.542;19.090;2023-04-25T19:18:22;4.40;;;2.40;;
75922;SDS011;64602;47.542;19.090;2023-04-25T19:23:24;3.83;;;2.08;;
75922;SDS011;64602;47.542;19.090;2023-04-25T19:28:27;4.68;;;2.58;;
75922;SDS011;64602;47.542;19.090;2023-04-25T19:33:31;4.37;;;2.40;;
75922;SDS011;64602;47.542;19.090;2023-04-25T19:38:33;5.40;;;2.53;;
75922;SDS011;64602;47.542;19.090;2023-04-25T19:43:35;4.53;;;2.50;;
75922;SDS011;64602;47.542;19.090;2023-04-25T19:48:38;3.42;;;1.90;;
75922;SDS011;64602;47.542;19.090;2023-04-25T19:53:40;4.40;;;2.40;;
75922;SDS011;64602;47.542;19.090;2023-04-25T19:58:42;3.85;;;2.15;;
75922;SDS011;64602;47.542;19.090;2023-04-25T20:03:44;4.82;;;2.35;;
75922;SDS011;64602;47.542;19.090;2023-04-25T20:08:49;5.50;;;2.67;;
